Time;durP1;ratioP1;P1;durP2;ratioP2;P2;SDS_P1;SDS_P2;PMS_P1;PMS_P2;Temp;Humidity;BMP_temperature;BMP_pressure;BME280_temperature;BME280_humidity;BME280_pressure;Samples;Min_cycle;Max_cycle;Signal;HPM_P1;HPM_P2
2022/08/04 00:02:17;;;;;;;9.48;5.53;;;20.60;99.90;;;;;;5032557;28;20063;-70
2022/08/04 00:04:45;;;;;;;14.05;5.75;;;20.60;99.90;;;;;;5034934;28;20041;-69
2022/08/04 00:07:52;;;;;;;9.68;5.70;;;20.60;99.90;;;;;;5037305;28;20048;-70
2022/08/04 00:10:21;;;;;;;10.50;5.82;;;20.60;99.90;;;;;;5018849;28;20048;-69
2022/08/04 00:12:49;;;;;;;10.43;6.40;;;20.60;99.90;;;;;;5021070;28;20046;-70
2022/08/04 00:15:16;;;;;;;10.55;5.70;;;20.50;99.90;;;;;;5041098;28;20036;-70
2022/08/04 00:18:13;;;;;;;9.80;5.43;;;20.50;99.90;;;;;;5002524;28;20483;-69
2022/08/04 00:20:41;;;;;;;11.00;6.70;;;20.50;99.90;;;;;;5019087;28;20340;-70
2022/08/04 00:23:08;;;;;;;9.75;5.38;;;20.50;99.90;;;;;;5054033;28;20068;-70
2022/08/04 00:25:39;;;;;;;10.73;5.70;;;20.50;99.90;;;;;;5022936;28;20048;-70
2022/08/04 00:28:05;;;;;;;9.15;5.53;;;20.40;99.90;;;;;;5021289;28;20033;-70
2022/08/04 00:30:31;;;;;;;13.07;6.90;;;20.40;99.90;;;;;;5035176;28;20052;-70
2022/08/04 00:33:01;;;;;;;8.77;5.72;;;20.40;99.90;;;;;;5018342;28;20046;-70
2022/08/04 00:35:28;;;;;;;10.68;6.28;;;20.30;99.90;;;;;;5037443;28;20040;-70
2022/08/04 00:37:54;;;;;;;12.65;5.90;;;20.30;99.90;;;;;;5020942;28;20063;-70
2022/08/04 00:40:42;;;;;;;11.48;6.30;;;20.30;99.90;;;;;;5024911;28;20044;-70
2022/08/04 00:43:37;;;;;;;13.82;6.10;;;20.20;99.90;;;;;;5038693;28;20047;-70
2022/08/04 00:46:12;;;;;;;17.70;6.88;;;20.10;99.90;;;;;;5037971;28;20087;-70
2022/08/04 00:49:07;;;;;;;10.13;5.97;;;20.10;99.90;;;;;;5036774;28;20059;-70
2022/08/04 00:51:39;;;;;;;15.90;6.57;;;20.10;99.90;;;;;;5027248;28;20041;-70
2022/08/04 00:54:34;;;;;;;10.55;6.20;;;20.10;99.90;;;;;;5022929;28;20041;-70
2022/08/04 00:57:37;;;;;;;12.05;5.97;;;20.00;99.90;;;;;;5020975;28;20036;-70
2022/08/04 01:00:13;;;;;;;11.73;6.53;;;20.00;99.90;;;;;;5040883;28;20032;-70
2022/08/04 01:03:08;;;;;;;13.13;6.45;;;20.00;99.90;;;;;;5040302;28;20306;-70
2022/08/04 01:06:21;;;;;;;12.93;6.55;;;20.00;99.90;;;;;;5021035;28;20528;-70
2022/08/04 01:09:11;;;;;;;13.80;7.15;;;20.00;99.90;;;;;;4972475;28;20125;-70
2022/08/04 01:11:46;;;;;;;11.40;6.70;;;20.00;99.90;;;;;;4974113;28;20091;-70
2022/08/04 01:14:12;;;;;;;16.17;6.90;;;20.00;99.90;;;;;;5019986;28;20040;-70
2022/08/04 01:16:50;;;;;;;10.15;5.72;;;20.00;99.90;;;;;;5045592;28;20394;-70
2022/08/04 01:19:45;;;;;;;16.58;6.25;;;20.00;99.90;;;;;;5041668;28;20068;-70
2022/08/04 01:22:30;;;;;;;11.23;5.97;;;19.90;99.90;;;;;;5013782;28;20453;-70
2022/08/04 01:25:26;;;;;;;15.10;6.35;;;19.90;99.90;;;;;;5024540;28;20037;-69
2022/08/04 01:28:10;;;;;;;12.45;6.13;;;20.00;99.90;;;;;;5038148;28;20041;-70
2022/08/04 01:30:41;;;;;;;12.20;6.40;;;20.00;99.90;;;;;;5030112;28;20036;-69
2022/08/04 01:33:13;;;;;;;17.77;6.32;;;19.90;99.90;;;;;;5025464;28;20138;-70
2022/08/04 01:35:55;;;;;;;12.23;6.60;;;19.90;99.90;;;;;;5039677;28;20041;-70
2022/08/04 01:38:21;;;;;;;12.05;6.32;;;19.90;99.90;;;;;;5028806;28;20040;-70
2022/08/04 01:40:50;;;;;;;16.83;6.65;;;19.90;99.90;;;;;;5034396;28;20037;-70
2022/08/04 01:43:16;;;;;;;15.13;6.35;;;19.90;99.90;;;;;;5022853;28;20086;-70
2022/08/04 01:45:49;;;;;;;13.38;6.78;;;19.80;99.90;;;;;;5020710;28;20128;-70
2022/08/04 01:48:22;;;;;;;9.07;5.65;;;19.80;99.90;;;;;;5028870;28;20045;-70
2022/08/04 01:50:50;;;;;;;12.82;5.90;;;19.80;99.90;;;;;;5013834;28;20477;-70
2022/08/04 01:53:18;;;;;;;9.23;5.88;;;19.80;99.90;;;;;;5030002;28;20706;-70
2022/08/04 01:55:51;;;;;;;15.38;5.93;;;19.80;99.90;;;;;;5012679;28;20515;-70
2022/08/04 01:58:18;;;;;;;11.23;6.97;;;19.80;99.90;;;;;;5044692;28;20045;-70
2022/08/04 02:00:58;;;;;;;10.40;5.88;;;19.80;99.90;;;;;;5029482;28;20106;-71
2022/08/04 02:03:24;;;;;;;10.88;5.70;;;19.70;99.90;;;;;;5003128;28;20042;-70
2022/08/04 02:05:58;;;;;;;11.38;6.22;;;19.70;99.90;;;;;;5013203;28;20047;-70
2022/08/04 02:08:43;;;;;;;9.95;6.90;;;19.70;99.90;;;;;;5029636;28;20494;-70
2022/08/04 02:11:16;;;;;;;10.48;6.13;;;19.70;99.90;;;;;;5029776;28;20083;-70
2022/08/04 02:13:44;;;;;;;8.07;5.32;;;19.70;99.90;;;;;;5034431;28;20139;-71
2022/08/04 02:16:35;;;;;;;11.88;6.13;;;19.70;99.90;;;;;;5052278;28;20517;-70
2022/08/04 02:19:07;;;;;;;14.95;6.18;;;19.70;99.90;;;;;;5034243;28;20505;-70
2022/08/04 02:21:34;;;;;;;15.03;6.07;;;19.70;99.90;;;;;;5017381;28;20496;-70
2022/08/04 02:24:15;;;;;;;11.68;6.40;;;19.60;99.90;;;;;;5001363;28;20083;-70
2022/08/04 02:26:45;;;;;;;14.52;6.47;;;19.60;99.90;;;;;;5028414;28;20044;-69
2022/08/04 02:29:49;;;;;;;9.70;6.18;;;19.60;99.90;;;;;;5042661;28;20371;-70
2022/08/04 02:32:24;;;;;;;12.82;5.88;;;19.60;99.90;;;;;;5023545;28;20056;-70
2022/08/04 02:35:13;;;;;;;15.48;6.80;;;19.60;99.90;;;;;;5029086;28;20057;-70
2022/08/04 02:37:46;;;;;;;16.48;6.07;;;19.60;99.90;;;;;;5045310;28;20048;-70
2022/08/04 02:40:14;;;;;;;12.75;6.22;;;19.60;99.90;;;;;;5028957;28;20051;-70
2022/08/04 02:42:40;;;;;;;9.18;6.35;;;19.60;99.90;;;;;;5027172;28;20398;-70
2022/08/04 02:45:07;;;;;;;9.15;5.53;;;19.60;99.90;;;;;;5011868;28;20040;-70
2022/08/04 02:47:34;;;;;;;10.20;6.05;;;19.60;99.90;;;;;;5034210;28;20071;-69
2022/08/04 02:50:01;;;;;;;13.30;5.90;;;19.60;99.90;;;;;;5017102;28;20041;-70
2022/08/04 02:52:29;;;;;;;14.10;6.00;;;19.50;99.90;;;;;;5019287;28;20044;-70
2022/08/04 02:54:58;;;;;;;13.38;6.22;;;19.60;99.90;;;;;;5007028;28;20049;-71
2022/08/04 02:57:28;;;;;;;13.00;6.05;;;19.50;99.90;;;;;;5038678;28;20041;-70
2022/08/04 03:00:16;;;;;;;12.82;6.07;;;19.50;99.90;;;;;;5054644;28;20041;-70
2022/08/04 03:03:10;;;;;;;11.73;6.40;;;19.50;99.90;;;;;;5023632;28;20041;-70
2022/08/04 03:05:53;;;;;;;36.83;6.43;;;19.50;99.90;;;;;;5022515;28;20678;-70
2022/08/04 03:08:57;;;;;;;11.52;5.95;;;19.50;99.90;;;;;;5038160;28;20037;-70
2022/08/04 03:11:50;;;;;;;10.52;5.85;;;19.50;99.90;;;;;;5020315;28;20101;-70
2022/08/04 03:14:15;;;;;;;14.32;6.75;;;19.50;99.90;;;;;;5035086;28;20075;-70
2022/08/04 03:17:16;;;;;;;15.88;5.80;;;19.50;99.90;;;;;;5022499;28;20485;-70
2022/08/04 03:19:56;;;;;;;10.70;5.63;;;19.40;99.90;;;;;;5035680;28;20064;-70
2022/08/04 03:22:53;;;;;;;10.05;6.15;;;19.50;99.90;;;;;;5020865;28;20037;-70
2022/08/04 03:25:18;;;;;;;12.50;5.43;;;19.50;99.90;;;;;;5033358;28;20042;-70
2022/08/04 03:27:44;;;;;;;18.05;6.20;;;19.50;99.90;;;;;;5035741;28;20044;-69
2022/08/04 03:30:34;;;;;;;12.20;6.45;;;19.40;99.90;;;;;;5041423;28;20033;-70
2022/08/04 03:33:48;;;;;;;12.63;6.00;;;19.40;99.90;;;;;;5034213;28;20033;-71
2022/08/04 03:36:36;;;;;;;9.45;5.68;;;19.30;99.90;;;;;;5029090;28;20095;-70
2022/08/04 03:39:19;;;;;;;13.80;6.35;;;19.20;99.90;;;;;;5034581;28;20046;-70
2022/08/04 03:42:22;;;;;;;10.70;6.53;;;19.10;99.90;;;;;;5035857;28;20143;-70
2022/08/04 03:45:27;;;;;;;11.82;6.32;;;19.00;99.90;;;;;;5018082;28;20123;-71
2022/08/04 03:47:55;;;;;;;14.00;6.45;;;18.90;99.90;;;;;;5046891;28;20567;-71
2022/08/04 03:50:40;;;;;;;14.23;6.07;;;18.80;99.90;;;;;;5017858;28;20048;-70
2022/08/04 03:53:09;;;;;;;12.93;6.80;;;18.70;99.90;;;;;;5038017;28;20045;-70
2022/08/04 03:55:43;;;;;;;11.10;6.18;;;18.60;99.90;;;;;;5017287;28;20589;-70
2022/08/04 03:58:24;;;;;;;14.45;7.07;;;18.60;99.90;;;;;;5037442;28;20029;-70
2022/08/04 04:00:55;;;;;;;9.68;6.40;;;18.60;99.90;;;;;;5034822;28;20025;-71
2022/08/04 04:03:27;;;;;;;9.37;6.60;;;18.50;99.90;;;;;;5021906;28;20045;-70
2022/08/04 04:06:27;;;;;;;11.10;7.07;;;18.50;99.90;;;;;;5042729;28;20299;-71
2022/08/04 04:09:05;;;;;;;12.32;7.78;;;18.40;99.90;;;;;;5020953;28;20300;-71
2022/08/04 04:11:39;;;;;;;14.93;7.18;;;18.40;99.90;;;;;;5037039;28;20158;-70
2022/08/04 04:14:26;;;;;;;14.13;6.50;;;18.30;99.90;;;;;;5034859;28;20103;-71
2022/08/04 04:17:08;;;;;;;13.52;7.05;;;18.30;99.90;;;;;;5035568;28;20037;-71
2022/08/04 04:19:45;;;;;;;14.13;6.45;;;18.30;99.90;;;;;;5037324;28;20037;-70
2022/08/04 04:22:39;;;;;;;10.93;6.10;;;18.30;99.90;;;;;;5036311;28;20558;-71
2022/08/04 04:25:30;;;;;;;14.18;6.70;;;18.30;99.90;;;;;;5020740;28;20065;-70
2022/08/04 04:28:04;;;;;;;12.77;6.68;;;18.30;99.90;;;;;;5052144;28;20081;-71
2022/08/04 04:30:30;;;;;;;11.75;6.20;;;18.40;99.90;;;;;;5059401;28;20052;-71
2022/08/04 04:33:14;;;;;;;12.85;6.03;;;18.40;99.90;;;;;;5034254;28;20245;-71
2022/08/04 04:35:45;;;;;;;10.23;6.82;;;18.40;99.90;;;;;;5021480;28;20037;-71
2022/08/04 04:38:32;;;;;;;13.25;6.97;;;18.40;99.90;;;;;;5041025;28;20029;-70
2022/08/04 04:41:10;;;;;;;13.15;6.22;;;18.40;99.90;;;;;;5021751;28;20394;-71
2022/08/04 04:43:59;;;;;;;11.68;6.15;;;18.40;99.90;;;;;;5034508;28;20102;-70
2022/08/04 04:46:40;;;;;;;13.57;5.80;;;18.50;99.90;;;;;;5041645;28;20068;-71
2022/08/04 04:49:33;;;;;;;13.60;6.38;;;18.50;99.90;;;;;;5042309;28;20049;-71
2022/08/04 04:52:05;;;;;;;13.20;6.65;;;18.50;99.90;;;;;;5056920;28;20076;-71
2022/08/04 04:54:48;;;;;;;15.90;6.18;;;18.40;99.90;;;;;;5027436;28;20041;-71
2022/08/04 04:57:18;;;;;;;10.77;6.32;;;18.50;99.90;;;;;;5035832;28;20029;-71
2022/08/04 04:59:57;;;;;;;15.88;7.05;;;18.50;99.90;;;;;;5026961;28;20050;-71
2022/08/04 05:02:50;;;;;;;14.32;5.93;;;18.50;99.90;;;;;;5038312;28;20033;-71
2022/08/04 05:05:40;;;;;;;9.73;5.85;;;18.50;99.90;;;;;;5042567;28;20399;-71
2022/08/04 05:08:28;;;;;;;11.90;6.00;;;18.50;99.90;;;;;;5038061;28;20121;-71
2022/08/04 05:11:12;;;;;;;12.13;6.20;;;18.60;99.90;;;;;;5043259;28;20422;-71
2022/08/04 05:13:43;;;;;;;11.80;6.50;;;18.60;99.90;;;;;;5039837;28;20041;-71
2022/08/04 05:16:20;;;;;;;10.85;6.32;;;18.60;99.90;;;;;;5038616;28;20049;-71
2022/08/04 05:18:56;;;;;;;10.93;6.32;;;18.60;99.90;;;;;;5039490;28;20443;-71
2022/08/04 05:21:49;;;;;;;16.45;6.10;;;18.70;99.90;;;;;;5022404;28;20048;-71
2022/08/04 05:24:18;;;;;;;13.15;6.20;;;18.80;99.90;;;;;;5032388;28;20053;-71
2022/08/04 05:26:49;;;;;;;14.50;6.30;;;18.90;99.90;;;;;;5041233;28;20040;-72
2022/08/04 05:29:28;;;;;;;15.60;6.00;;;18.90;99.90;;;;;;5038297;28;20410;-72
2022/08/04 05:31:56;;;;;;;17.25;7.20;;;19.00;99.90;;;;;;5019475;28;20448;-71
2022/08/04 05:34:27;;;;;;;13.70;6.22;;;19.10;99.90;;;;;;5038887;28;20532;-71
2022/08/04 05:37:01;;;;;;;15.70;6.90;;;19.10;99.90;;;;;;5023456;28;20455;-71
2022/08/04 05:39:30;;;;;;;13.75;6.72;;;19.20;99.90;;;;;;5037366;28;20658;-71
2022/08/04 05:41:58;;;;;;;13.75;6.30;;;19.30;99.90;;;;;;5034557;28;20045;-70
2022/08/04 05:44:26;;;;;;;11.65;6.28;;;19.40;99.90;;;;;;5020133;28;20041;-71
2022/08/04 05:46:56;;;;;;;17.15;6.43;;;19.40;99.90;;;;;;5045981;28;20059;-71
2022/08/04 05:49:27;;;;;;;13.15;6.80;;;19.50;99.90;;;;;;5054471;28;20040;-71
2022/08/04 05:52:00;;;;;;;13.45;6.70;;;19.50;99.90;;;;;;5037904;28;20032;-72
2022/08/04 05:54:29;;;;;;;16.05;7.10;;;19.60;99.90;;;;;;5039361;28;20115;-71
2022/08/04 05:56:56;;;;;;;13.30;6.50;;;19.60;99.90;;;;;;5042456;28;20068;-71
2022/08/04 05:59:26;;;;;;;13.05;6.78;;;19.70;99.90;;;;;;5055162;28;20541;-71
2022/08/04 06:01:57;;;;;;;15.13;6.68;;;19.80;99.90;;;;;;5023879;28;20439;-71
2022/08/04 06:04:37;;;;;;;14.95;6.30;;;19.80;99.90;;;;;;5056906;28;20584;-71
2022/08/04 06:07:05;;;;;;;12.30;6.43;;;19.90;99.90;;;;;;5043255;28;20048;-71
2022/08/04 06:09:31;;;;;;;14.07;6.78;;;19.90;99.90;;;;;;5005597;28;21729;-71
2022/08/04 06:12:01;;;;;;;13.98;5.95;;;19.90;99.90;;;;;;5024930;28;20048;-71
2022/08/04 06:14:43;;;;;;;13.50;6.00;;;20.00;99.90;;;;;;5041944;28;20486;-72
2022/08/04 06:17:13;;;;;;;12.83;4.93;;;20.10;99.90;;;;;;5041829;28;20036;-72
2022/08/04 06:19:40;;;;;;;12.82;5.55;;;20.20;99.90;;;;;;5039582;28;20688;-72
2022/08/04 06:22:09;;;;;;;13.45;6.20;;;20.30;99.90;;;;;;5041766;28;20074;-71
2022/08/04 06:24:40;;;;;;;11.50;4.65;;;20.40;99.90;;;;;;5061657;28;20040;-71
2022/08/04 06:27:07;;;;;;;18.52;5.75;;;20.50;99.90;;;;;;5038761;28;20401;-72
2022/08/04 06:29:39;;;;;;;14.25;4.90;;;20.60;99.90;;;;;;5008174;28;20032;-71
2022/08/04 06:32:23;;;;;;;13.15;5.13;;;20.70;99.90;;;;;;5047097;28;20516;-72
2022/08/04 06:35:00;;;;;;;11.65;4.63;;;20.90;99.90;;;;;;5041947;28;20067;-72
2022/08/04 06:37:27;;;;;;;14.88;5.03;;;21.00;99.90;;;;;;5042099;28;20494;-71
2022/08/04 06:39:54;;;;;;;12.55;5.35;;;21.10;99.90;;;;;;5060686;28;20041;-72
2022/08/04 06:42:22;;;;;;;11.13;5.18;;;21.20;99.90;;;;;;5007842;28;20082;-72
2022/08/04 06:44:59;;;;;;;11.05;5.07;;;21.30;99.90;;;;;;5052468;28;20048;-72
2022/08/04 06:47:27;;;;;;;19.27;5.60;;;21.40;99.90;;;;;;5039694;28;20549;-73
2022/08/04 06:49:55;;;;;;;11.93;5.50;;;21.50;99.90;;;;;;5025644;28;20055;-72
2022/08/04 06:52:21;;;;;;;9.35;5.15;;;21.60;99.90;;;;;;5056887;28;20078;-71
2022/08/04 06:54:50;;;;;;;12.07;5.38;;;21.70;99.90;;;;;;5014401;28;20076;-71
2022/08/04 06:57:20;;;;;;;15.07;4.90;;;21.80;99.90;;;;;;5018753;28;20083;-72
2022/08/04 06:59:50;;;;;;;13.15;5.07;;;21.90;99.90;;;;;;5020897;28;20460;-71
2022/08/04 07:02:21;;;;;;;12.48;5.05;;;22.00;99.90;;;;;;5005143;28;21315;-71
2022/08/04 07:04:47;;;;;;;14.27;5.75;;;22.10;99.90;;;;;;5004625;28;20083;-72
2022/08/04 07:07:14;;;;;;;10.07;4.75;;;22.10;99.90;;;;;;5038123;28;20049;-71
2022/08/04 07:09:40;;;;;;;11.38;5.65;;;22.20;99.90;;;;;;5021406;28;20044;-71
2022/08/04 07:12:08;;;;;;;9.82;4.60;;;22.40;99.90;;;;;;5004992;28;20389;-70
2022/08/04 07:14:35;;;;;;;12.45;5.03;;;22.40;99.90;;;;;;5038191;28;21102;-72
2022/08/04 07:17:03;;;;;;;10.73;5.35;;;22.50;99.90;;;;;;5036759;28;20037;-70
2022/08/04 07:19:31;;;;;;;10.60;5.28;;;22.60;99.90;;;;;;5004694;28;20601;-71
2022/08/04 07:22:02;;;;;;;11.95;4.75;;;22.60;99.90;;;;;;5007788;28;20040;-72
2022/08/04 07:24:36;;;;;;;7.28;4.32;;;22.60;99.90;;;;;;5020546;28;20601;-71
2022/08/04 07:27:04;;;;;;;11.95;5.13;;;22.60;99.90;;;;;;5022962;28;20048;-71
2022/08/04 07:29:30;;;;;;;13.90;5.18;;;22.60;99.90;;;;;;5021135;28;20084;-71
2022/08/04 07:31:57;;;;;;;10.57;4.85;;;22.80;99.90;;;;;;5020534;28;20131;-73
2022/08/04 07:34:23;;;;;;;8.50;5.28;;;22.90;99.90;;;;;;5004519;28;20096;-72
2022/08/04 07:36:53;;;;;;;11.93;6.00;;;22.90;99.90;;;;;;5003835;28;20048;-72
2022/08/04 07:39:21;;;;;;;13.15;5.68;;;23.00;99.90;;;;;;5019521;28;20033;-71
2022/08/04 07:41:47;;;;;;;11.18;5.53;;;23.10;99.90;;;;;;5020114;28;20052;-73
2022/08/04 07:44:14;;;;;;;13.30;5.68;;;23.20;99.90;;;;;;5022702;28;20098;-72
2022/08/04 07:46:41;;;;;;;10.98;4.95;;;23.30;99.90;;;;;;5017856;28;20534;-70
2022/08/04 07:49:08;;;;;;;13.55;5.60;;;23.40;99.90;;;;;;5017827;28;20076;-71
2022/08/04 07:51:36;;;;;;;15.10;5.60;;;23.40;99.90;;;;;;5020417;28;20052;-72
2022/08/04 07:54:04;;;;;;;9.27;5.05;;;23.50;99.90;;;;;;5020820;28;20053;-71
2022/08/04 07:56:35;;;;;;;11.50;5.22;;;23.60;99.90;;;;;;5002490;28;20036;-71
2022/08/04 07:59:02;;;;;;;9.02;4.78;;;23.60;99.90;;;;;;5023300;28;20547;-71
2022/08/04 08:01:28;;;;;;;12.45;5.03;;;23.70;99.90;;;;;;5015125;28;20048;-72
2022/08/04 08:03:55;;;;;;;8.45;4.60;;;23.70;99.90;;;;;;5020204;28;20045;-72
2022/08/04 08:06:25;;;;;;;9.80;4.80;;;23.90;99.90;;;;;;5021023;28;20040;-72
2022/08/04 08:08:50;;;;;;;8.60;4.60;;;23.90;99.90;;;;;;5038161;28;20519;-72
2022/08/04 08:11:17;;;;;;;11.13;4.55;;;24.00;99.90;;;;;;5008144;28;20186;-71
2022/08/04 08:13:44;;;;;;;8.18;4.68;;;24.10;99.90;;;;;;5009710;28;20053;-71
2022/08/04 08:16:10;;;;;;;9.27;4.80;;;24.20;99.90;;;;;;5001394;28;20048;-72
2022/08/04 08:18:36;;;;;;;11.20;5.38;;;24.30;99.90;;;;;;5038277;28;20390;-72
2022/08/04 08:21:03;;;;;;;9.25;4.75;;;24.30;99.90;;;;;;5005534;28;20064;-71
2022/08/04 08:23:30;;;;;;;14.90;4.82;;;24.40;99.90;;;;;;5018628;28;20043;-71
2022/08/04 08:25:58;;;;;;;9.98;4.38;;;24.40;99.90;;;;;;5036248;28;20262;-72
2022/08/04 08:28:24;;;;;;;11.68;4.53;;;24.40;99.90;;;;;;5006459;28;20057;-71
2022/08/04 08:30:49;;;;;;;14.05;4.38;;;24.50;99.90;;;;;;5002661;28;20512;-71
2022/08/04 08:33:16;;;;;;;11.30;4.47;;;24.50;99.90;;;;;;5002671;28;20055;-72
2022/08/04 08:36:09;;;;;;;7.45;4.78;;;24.50;99.90;;;;;;5005533;28;20037;-72
2022/08/04 08:39:10;;;;;;;9.02;4.07;;;24.50;99.90;;;;;;5020609;28;20064;-72
2022/08/04 08:41:54;;;;;;;13.90;5.15;;;24.60;99.90;;;;;;5014705;28;20533;-72
2022/08/04 08:44:44;;;;;;;7.72;4.65;;;24.80;99.90;;;;;;5005581;28;20132;-72
2022/08/04 08:47:54;;;;;;;8.80;4.07;;;24.90;99.90;;;;;;5021941;28;20157;-72
2022/08/04 08:50:35;;;;;;;7.22;3.70;;;25.20;99.90;;;;;;4989262;28;20041;-72
2022/08/04 08:53:30;;;;;;;9.10;3.70;;;25.50;99.90;;;;;;5038055;28;20560;-72
2022/08/04 08:56:12;;;;;;;10.20;3.70;;;25.70;99.90;;;;;;5004973;28;20394;-72
2022/08/04 08:58:40;;;;;;;6.32;3.40;;;25.90;99.90;;;;;;5021099;28;20040;-72
2022/08/04 09:01:16;;;;;;;6.18;4.38;;;26.00;99.90;;;;;;5039385;28;20033;-72
2022/08/04 09:03:44;;;;;;;9.63;3.40;;;26.10;99.90;;;;;;5004283;28;21554;-71
2022/08/04 09:06:30;;;;;;;6.38;3.22;;;26.30;99.90;;;;;;5020960;28;20056;-72
2022/08/04 09:09:24;;;;;;;9.15;4.07;;;26.30;99.90;;;;;;5021279;28;20154;-72
2022/08/04 09:12:15;;;;;;;11.25;4.38;;;26.30;99.90;;;;;;5019702;28;20037;-72
2022/08/04 09:14:59;;;;;;;12.25;3.80;;;26.40;99.90;;;;;;5023167;28;20072;-72
2022/08/04 09:17:52;;;;;;;11.30;3.80;;;26.40;99.90;;;;;;5027372;28;20040;-72
2022/08/04 09:20:46;;;;;;;11.90;4.38;;;26.60;99.90;;;;;;5026890;28;20037;-72
2022/08/04 09:23:14;;;;;;;9.20;3.60;;;26.80;99.90;;;;;;5024372;28;20048;-72
2022/08/04 09:25:48;;;;;;;7.80;3.40;;;26.90;99.90;;;;;;5008138;28;20124;-72
2022/08/04 09:28:25;;;;;;;10.25;4.25;;;26.90;99.90;;;;;;5024459;28;20048;-71
2022/08/04 09:30:59;;;;;;;9.10;3.42;;;26.90;99.90;;;;;;5026206;28;20204;-72
2022/08/04 09:33:41;;;;;;;9.40;3.65;;;27.00;99.90;;;;;;5041939;28;20037;-71
2022/08/04 09:36:14;;;;;;;;;;;27.10;99.90;;;;;;5008771;28;20040;-72
2022/08/04 09:39:05;;;;;;;8.00;3.40;;;27.30;99.90;;;;;;5023807;28;19928;-72
2022/08/04 09:41:58;;;;;;;11.68;3.25;;;27.40;99.90;;;;;;5024514;28;20540;-72
2022/08/04 09:44:47;;;;;;;8.20;3.10;;;27.60;99.90;;;;;;5006715;28;20517;-72
2022/08/04 09:47:44;;;;;;;6.72;3.38;;;27.70;99.80;;;;;;4997227;28;20187;-71
2022/08/04 09:50:25;;;;;;;8.88;3.10;;;27.90;99.30;;;;;;5030397;28;20106;-72
2022/08/04 09:52:51;;;;;;;8.32;3.17;;;27.90;99.20;;;;;;5023300;28;20041;-70
2022/08/04 09:55:29;;;;;;;6.72;2.60;;;28.00;99.20;;;;;;5020633;28;20045;-72
2022/08/04 09:58:21;;;;;;;10.02;3.45;;;28.10;98.50;;;;;;5021541;28;20039;-72
2022/08/04 10:01:01;;;;;;;11.57;3.30;;;28.20;98.40;;;;;;5022989;28;20041;-71
2022/08/04 10:03:35;;;;;;;6.80;3.38;;;28.40;97.50;;;;;;5020859;28;20048;-72
2022/08/04 10:06:25;;;;;;;7.40;3.42;;;28.60;98.30;;;;;;5019095;28;20622;-71
2022/08/04 10:09:06;;;;;;;7.28;4.13;;;28.70;96.80;;;;;;5016862;28;20045;-72
2022/08/04 10:11:56;;;;;;;9.93;3.33;;;28.80;97.20;;;;;;5004278;28;20045;-72
2022/08/04 10:14:39;;;;;;;8.57;3.65;;;28.90;97.60;;;;;;5003241;28;20042;-73
2022/08/04 10:17:33;;;;;;;7.97;3.47;;;29.10;96.50;;;;;;5006285;28;20517;-72
2022/08/04 10:20:17;;;;;;;8.48;3.13;;;29.10;96.20;;;;;;5022278;28;20046;-72
2022/08/04 10:23:00;;;;;;;6.55;3.17;;;29.10;96.30;;;;;;5004936;28;20045;-72
2022/08/04 10:25:28;;;;;;;;;;;29.00;96.90;;;;;;5023604;28;20482;-73
2022/08/04 10:27:59;;;;;;;17.00;3.92;;;29.00;96.40;;;;;;5005746;28;19917;-72
2022/08/04 10:30:27;;;;;;;7.68;3.50;;;29.10;96.60;;;;;;5006769;28;20052;-72
2022/08/04 10:33:06;;;;;;;6.55;3.45;;;29.20;96.40;;;;;;5005270;28;20063;-73
2022/08/04 10:35:36;;;;;;;4.97;3.15;;;29.20;96.30;;;;;;5019352;28;20052;-72
2022/08/04 10:38:18;;;;;;;8.30;3.60;;;29.20;96.50;;;;;;5019652;28;20076;-72
2022/08/04 10:41:02;;;;;;;;;;;29.20;96.20;;;;;;5003769;28;20041;-72
2022/08/04 10:43:34;;;;;;;12.40;3.67;;;29.00;96.30;;;;;;5020532;28;19917;-73
2022/08/04 10:46:22;;;;;;;6.78;3.38;;;29.00;96.40;;;;;;5018499;28;20111;-73
2022/08/04 10:48:50;;;;;;;10.63;3.70;;;28.90;96.30;;;;;;4986043;28;20095;-71
2022/08/04 10:51:39;;;;;;;12.02;4.20;;;28.90;96.60;;;;;;5003372;28;20077;-73
2022/08/04 10:54:10;;;;;;;5.38;3.13;;;28.90;96.60;;;;;;4994863;28;20819;-74
2022/08/04 10:56:41;;;;;;;8.07;3.65;;;29.10;97.00;;;;;;5005702;28;20072;-72
2022/08/04 10:59:46;;;;;;;8.48;3.85;;;29.20;97.00;;;;;;5022651;28;20041;-72
2022/08/04 11:02:29;;;;;;;6.38;3.50;;;29.40;96.30;;;;;;5016985;28;20048;-71
2022/08/04 11:05:23;;;;;;;6.85;4.10;;;29.40;96.00;;;;;;4986538;28;20052;-73
2022/08/04 11:07:52;;;;;;;9.60;4.05;;;29.50;96.20;;;;;;5019962;28;20124;-74
2022/08/04 11:10:24;;;;;;;9.68;4.40;;;29.50;96.80;;;;;;4986876;28;20080;-76
2022/08/04 11:12:56;;;;;;;9.85;3.88;;;29.60;97.00;;;;;;4999522;28;20049;-75
2022/08/04 11:15:26;;;;;;;8.75;3.80;;;29.60;97.40;;;;;;5019435;28;20045;-74
2022/08/04 11:18:05;;;;;;;7.68;4.38;;;29.70;97.40;;;;;;5002989;28;20033;-75
2022/08/04 11:21:06;;;;;;;8.90;4.40;;;29.80;97.80;;;;;;5004359;28;20773;-74
2022/08/04 11:23:36;;;;;;;10.50;4.00;;;29.80;97.10;;;;;;4995942;28;20950;-76
2022/08/04 11:26:26;;;;;;;7.43;3.50;;;29.90;97.90;;;;;;5004133;28;20048;-78
2022/08/04 11:29:01;;;;;;;9.15;4.15;;;29.80;97.20;;;;;;5003724;28;20041;-79
2022/08/04 11:31:42;;;;;;;8.32;3.90;;;29.70;97.60;;;;;;4987375;28;20052;-79
2022/08/04 11:34:19;;;;;;;8.00;3.65;;;29.40;97.20;;;;;;4988236;28;20376;-81
2022/08/04 11:37:07;;;;;;;8.48;3.90;;;29.10;96.90;;;;;;5001724;28;20044;-79
2022/08/04 11:39:36;;;;;;;9.25;3.45;;;29.00;97.20;;;;;;5004743;28;20041;-82
2022/08/04 11:42:17;;;;;;;7.45;3.70;;;28.80;97.20;;;;;;4993825;28;20495;-80
2022/08/04 11:45:01;;;;;;;6.60;3.72;;;28.70;97.30;;;;;;5002340;28;20398;-80
2022/08/04 11:47:46;;;;;;;9.05;3.60;;;28.50;97.40;;;;;;5010580;28;20402;-80
2022/08/04 11:50:31;;;;;;;7.65;3.85;;;28.50;97.30;;;;;;5022363;28;20424;-81
2022/08/04 11:52:58;;;;;;;9.10;3.55;;;28.50;97.70;;;;;;5003108;28;20120;-82
2022/08/04 11:55:27;;;;;;;5.65;3.22;;;28.50;97.40;;;;;;5004515;28;20037;-81
2022/08/04 11:57:53;;;;;;;8.23;3.78;;;28.40;97.30;;;;;;5003098;28;20080;-79
2022/08/04 12:00:21;;;;;;;6.68;2.95;;;28.30;97.20;;;;;;5002569;28;20091;-75
2022/08/04 12:03:04;;;;;;;6.88;3.08;;;28.10;96.90;;;;;;5003988;28;20045;-76
2022/08/04 12:05:33;;;;;;;6.47;2.42;;;28.00;97.20;;;;;;5009794;28;20053;-75
2022/08/04 12:08:06;;;;;;;9.23;2.65;;;27.90;97.40;;;;;;5002533;28;20406;-74
2022/08/04 12:10:34;;;;;;;7.68;2.60;;;27.80;97.50;;;;;;5021844;28;20038;-74
2022/08/04 12:13:19;;;;;;;6.00;2.53;;;27.70;97.90;;;;;;5004985;28;20313;-77
2022/08/04 12:16:03;;;;;;;4.35;2.50;;;27.60;98.00;;;;;;5019681;28;20041;-74
2022/08/04 12:18:38;;;;;;;5.13;2.50;;;27.50;98.00;;;;;;5023220;28;20141;-74
2022/08/04 12:21:32;;;;;;;6.53;3.03;;;27.50;98.10;;;;;;5015223;28;20850;-76
2022/08/04 12:24:04;;;;;;;7.55;2.30;;;27.40;97.90;;;;;;5018468;28;20429;-75
2022/08/04 12:26:41;;;;;;;9.18;2.25;;;27.40;97.90;;;;;;5020039;28;20029;-74
2022/08/04 12:29:10;;;;;;;5.07;2.53;;;27.20;97.70;;;;;;5018453;28;20124;-76
2022/08/04 12:31:49;;;;;;;7.45;2.55;;;27.10;97.90;;;;;;5017133;28;20037;-74
2022/08/04 12:34:44;;;;;;;3.42;1.85;;;27.00;97.80;;;;;;5036685;28;20068;-73
2022/08/04 12:37:33;;;;;;;5.97;2.50;;;26.80;97.70;;;;;;5018155;28;20483;-72
2022/08/04 12:40:04;;;;;;;9.75;2.60;;;26.70;98.00;;;;;;5006901;28;20029;-72
2022/08/04 12:42:44;;;;;;;9.52;2.60;;;26.50;98.00;;;;;;5020606;28;20137;-72
2022/08/04 12:45:11;;;;;;;7.25;2.20;;;26.50;98.10;;;;;;5023141;28;20072;-71
2022/08/04 12:47:39;;;;;;;6.85;2.75;;;26.30;98.30;;;;;;5008846;28;20520;-71
2022/08/04 12:50:06;;;;;;;8.95;2.78;;;26.30;98.60;;;;;;5008404;28;20077;-71
2022/08/04 12:52:41;;;;;;;9.90;2.83;;;26.20;99.10;;;;;;5006164;28;20601;-72
2022/08/04 12:55:08;;;;;;;5.00;2.35;;;26.00;99.90;;;;;;5000301;28;20045;-72
2022/08/04 12:57:34;;;;;;;11.10;2.85;;;25.90;99.90;;;;;;5002400;28;20055;-71
2022/08/04 13:00:00;;;;;;;8.02;2.90;;;25.70;99.90;;;;;;4989182;28;20080;-73
2022/08/04 13:02:32;;;;;;;6.05;2.83;;;25.50;99.90;;;;;;4986578;28;20466;-73
2022/08/04 13:05:03;;;;;;;7.07;2.92;;;25.40;99.90;;;;;;4990699;28;20106;-73
2022/08/04 13:07:37;;;;;;;4.53;2.58;;;25.30;99.90;;;;;;5022981;28;20152;-74
2022/08/04 13:10:22;;;;;;;8.15;3.20;;;25.20;99.90;;;;;;5000392;28;20158;-73
2022/08/04 13:12:56;;;;;;;8.57;3.72;;;25.00;99.90;;;;;;4999086;28;20085;-75
2022/08/04 13:15:27;;;;;;;7.40;3.28;;;25.00;99.90;;;;;;5004700;28;20044;-75
2022/08/04 13:18:11;;;;;;;6.05;3.05;;;24.90;99.90;;;;;;5003529;28;20512;-74
2022/08/04 13:20:38;;;;;;;6.15;3.50;;;24.90;99.90;;;;;;5018503;28;20041;-73
2022/08/04 13:23:14;;;;;;;4.97;3.20;;;24.90;99.90;;;;;;5019366;28;20037;-74
2022/08/04 13:25:43;;;;;;;5.05;2.78;;;24.90;99.90;;;;;;5028604;28;20079;-74
2022/08/04 13:28:22;;;;;;;6.35;3.20;;;24.90;99.90;;;;;;5010750;28;20032;-74
2022/08/04 13:30:58;;;;;;;4.85;2.47;;;24.90;99.90;;;;;;5029501;28;20045;-73